Abbyville, Kansas
Current Conditions -  °F | °C
As of 10:52 AM on Saturday 25 Oct 2014 (Local Time) from KHUT Reporting Station
Clear Clear  
Wind Chill: 72°   Ceiling: Unl
Heat Index: 72°   Visibility: 10mi
Dew Point: 62°   Wind: 7mph
Humidity: 71%   Direction: 140°SE
Pressure: 30.08"   Gusts: NA
Location:  37.97°N, 98.2°W
Report Text: KHUT 251552Z 14006KT 10SM CLR 22/17 A3008 RMK AO2 SLP167 T02220167
Loading
Personal Weather Stations






























Interactive Weather Map
Tropical Storm Tracking
New forecast layout! Learn more

10-Day Weather Forecast

Advertisements
Track Severe Weather on mobile